Time;durP1;ratioP1;P1;durP2;ratioP2;P2;SDS_P1;SDS_P2;PMS_P1;PMS_P2;Temp;Humidity;BMP_temperature;BMP_pressure;BME280_temperature;BME280_humidity;BME280_pressure;Samples;Min_cycle;Max_cycle;Signal;HPM_P1;HPM_P2
2023/01/04 00:00:08;;;;;;;64.93;29.65;;;256.20;2252.80;;;;;;5019081;28;20028;-85
2023/01/04 00:02:34;;;;;;;64.90;32.58;;;256.20;2252.80;;;;;;5022288;28;20029;-85
2023/01/04 00:04:59;;;;;;;57.15;27.67;;;256.30;2252.80;;;;;;5045101;28;20089;-85
2023/01/04 00:07:27;;;;;;;;;;;256.20;2252.80;;;;;;5037165;28;20387;-81
2023/01/04 00:09:53;;;;;;;60.15;28.77;;;256.20;2252.80;;;;;;5023674;28;19913;-84
2023/01/04 00:12:18;;;;;;;57.90;29.45;;;256.10;2252.80;;;;;;5022425;28;20158;-85
2023/01/04 00:14:44;;;;;;;;;;;256.10;2252.80;;;;;;5024829;28;20021;-85
2023/01/04 00:17:10;;;;;;;55.50;28.05;;;256.10;2252.80;;;;;;5017729;28;20385;-85
2023/01/04 00:19:35;;;;;;;;;;;256.00;2252.80;;;;;;5030653;28;20040;-84
2023/01/04 00:22:01;;;;;;;59.53;29.15;;;256.00;2252.80;;;;;;5021827;28;19909;-85
2023/01/04 00:24:26;;;;;;;;;;;256.10;2252.80;;;;;;5044766;28;20029;-85
2023/01/04 00:26:52;;;;;;;62.30;29.00;;;256.10;2252.80;;;;;;5023411;28;19913;-81
2023/01/04 00:29:18;;;;;;;60.60;28.92;;;256.10;2252.80;;;;;;5023922;28;20033;-85
2023/01/04 00:31:44;;;;;;;55.85;28.10;;;256.10;2252.80;;;;;;5021870;28;20116;-85
2023/01/04 00:34:10;;;;;;;;;;;256.00;2252.80;;;;;;5034389;28;20033;-85
2023/01/04 00:36:36;;;;;;;55.57;27.87;;;256.00;2252.80;;;;;;5024258;28;19999;-85
2023/01/04 00:39:11;;;;;;;58.83;27.92;;;256.10;2252.80;;;;;;5027334;28;20041;-80
2023/01/04 00:41:40;;;;;;;62.15;29.02;;;256.10;2252.80;;;;;;5017561;28;20033;-85
2023/01/04 00:44:07;;;;;;;55.00;26.15;;;256.10;2252.80;;;;;;5018099;28;20026;-85
2023/01/04 00:46:33;;;;;;;53.67;25.77;;;256.20;2252.80;;;;;;5019875;28;20446;-84
2023/01/04 00:48:59;;;;;;;51.35;25.70;;;256.20;2252.80;;;;;;5040290;28;20137;-85
2023/01/04 00:51:25;;;;;;;54.55;28.40;;;256.20;2252.80;;;;;;5021510;28;20065;-83
2023/01/04 00:53:51;;;;;;;48.90;25.77;;;256.20;2252.80;;;;;;5019341;28;20025;-85
2023/01/04 00:56:17;;;;;;;53.15;26.92;;;256.10;2252.80;;;;;;5026918;28;20049;-85
2023/01/04 00:58:43;;;;;;;45.72;24.52;;;256.20;2252.80;;;;;;5034602;28;20025;-85
2023/01/04 01:01:09;;;;;;;51.60;26.95;;;256.30;2252.80;;;;;;5035165;28;20025;-85
2023/01/04 01:03:35;;;;;;;44.15;23.83;;;256.30;2252.80;;;;;;5040187;28;20053;-85
2023/01/04 01:06:06;;;;;;;49.95;26.90;;;256.30;2252.80;;;;;;5030030;28;20498;-84
2023/01/04 01:08:32;;;;;;;49.50;25.45;;;256.20;2252.80;;;;;;5030016;28;20056;-84
2023/01/04 01:11:07;;;;;;;41.90;24.00;;;256.30;2252.80;;;;;;5033248;28;20114;-85
2023/01/04 01:13:33;;;;;;;38.65;21.63;;;256.30;2252.80;;;;;;5037234;28;20563;-83
2023/01/04 01:16:15;;;;;;;42.72;23.23;;;256.20;2252.80;;;;;;5034484;28;20064;-83
2023/01/04 01:18:43;;;;;;;42.60;22.90;;;256.10;2252.80;;;;;;5033526;28;20061;-84
2023/01/04 01:21:15;;;;;;;42.17;23.30;;;256.20;2252.80;;;;;;5035795;28;20030;-85
2023/01/04 01:23:42;;;;;;;40.20;22.08;;;256.30;2252.80;;;;;;5029246;28;20066;-84
2023/01/04 01:26:11;;;;;;;42.08;24.38;;;256.30;2252.80;;;;;;5024955;28;20488;-84
2023/01/04 01:28:37;;;;;;;44.03;24.35;;;256.40;2252.80;;;;;;5041584;28;20038;-85
2023/01/04 01:31:08;;;;;;;44.95;24.77;;;256.30;2252.80;;;;;;5039435;28;20071;-84
2023/01/04 01:33:42;;;;;;;41.55;23.45;;;256.30;2252.80;;;;;;5034302;28;20030;-85
2023/01/04 01:36:08;;;;;;;49.75;25.63;;;256.30;2252.80;;;;;;5039162;28;20017;-85
2023/01/04 01:38:35;;;;;;;42.35;22.40;;;256.20;2252.80;;;;;;5027157;28;20048;-85
2023/01/04 01:41:01;;;;;;;42.65;23.85;;;256.30;2252.80;;;;;;5039663;28;20017;-85
2023/01/04 01:43:47;;;;;;;40.60;23.08;;;256.30;2252.80;;;;;;5039749;28;20032;-85
2023/01/04 01:46:14;;;;;;;42.28;26.08;;;256.30;2252.80;;;;;;5036528;28;20021;-82
2023/01/04 01:48:40;;;;;;;41.28;23.45;;;256.20;2252.80;;;;;;5031286;28;20030;-85
2023/01/04 01:51:06;;;;;;;40.53;23.63;;;256.20;2252.80;;;;;;5039115;28;20044;-84
2023/01/04 01:53:36;;;;;;;41.63;23.25;;;256.30;2252.80;;;;;;5056876;28;20051;-85
2023/01/04 01:56:04;;;;;;;42.65;24.88;;;256.20;2252.80;;;;;;5031123;28;20068;-84
2023/01/04 01:58:34;;;;;;;42.88;23.90;;;256.20;2252.80;;;;;;5036786;28;20475;-85
2023/01/04 02:01:01;;;;;;;37.75;22.73;;;256.10;2252.80;;;;;;5037576;28;20035;-85
2023/01/04 02:03:33;;;;;;;40.95;23.63;;;256.10;2252.80;;;;;;5037416;28;20018;-84
2023/01/04 02:06:01;;;;;;;46.42;25.40;;;256.20;2252.80;;;;;;5029582;28;20036;-85
2023/01/04 02:08:28;;;;;;;40.85;22.48;;;256.20;2252.80;;;;;;5037341;28;20029;-84
2023/01/04 02:10:55;;;;;;;38.22;23.08;;;256.30;2252.80;;;;;;5037516;28;20084;-85
2023/01/04 02:14:25;;;;;;;42.80;21.48;;;256.30;2252.80;;;;;;5037456;28;20124;-85
2023/01/04 02:16:21;;;;;;;36.42;22.52;;;256.20;2252.80;;;;;;5054537;28;20021;-84
2023/01/04 02:19:10;;;;;;;37.55;22.98;;;256.10;2252.80;;;;;;5055211;28;20032;-81
2023/01/04 02:22:13;;;;;;;37.22;23.00;;;256.20;2252.80;;;;;;5051837;28;20057;-84
2023/01/04 02:24:54;;;;;;;39.05;21.65;;;256.10;2252.80;;;;;;5034109;28;20026;-84
2023/01/04 02:27:25;;;;;;;38.95;21.38;;;256.10;2252.80;;;;;;5027669;28;20057;-85
2023/01/04 02:30:19;;;;;;;39.33;22.65;;;256.10;2252.80;;;;;;5037312;28;20036;-85
2023/01/04 02:32:52;;;;;;;39.22;23.25;;;256.10;2252.80;;;;;;5036170;28;20021;-84
2023/01/04 02:35:56;;;;;;;39.70;22.90;;;256.10;2252.80;;;;;;5032100;28;20059;-84
2023/01/04 02:38:31;;;;;;;39.20;23.27;;;256.10;2252.80;;;;;;4938790;29;20039;-84
2023/01/04 02:41:11;;;;;;;44.30;23.13;;;256.10;2252.80;;;;;;4930282;29;20032;-85
2023/01/04 02:46:33;;;;;;;43.85;23.73;;;256.10;2252.80;;;;;;4951786;29;20063;-81
2023/01/04 02:51:45;;;;;;;40.25;22.85;;;256.10;2252.80;;;;;;4950241;29;20191;-85
2023/01/04 02:54:19;;;;;;;36.22;21.67;;;256.10;2252.80;;;;;;4929990;29;20118;-85
2023/01/04 02:57:03;;;;;;;32.47;21.55;;;256.20;2252.80;;;;;;4929393;29;20057;-85
2023/01/04 02:59:40;;;;;;;37.17;22.83;;;256.20;2252.80;;;;;;4953916;29;20023;-85
2023/01/04 03:08:41;;;;;;;39.20;21.48;;;256.30;2252.80;;;;;;4946624;29;20602;-89
2023/01/04 03:12:30;;;;;;;35.67;21.02;;;256.30;2252.80;;;;;;4954395;29;20058;-82
2023/01/04 03:14:21;;;;;;;37.85;21.88;;;256.30;2252.80;;;;;;4961292;28;20034;-90
2023/01/04 03:16:49;;;;;;;35.80;22.20;;;256.20;2252.80;;;;;;5021277;28;20033;-90
2023/01/04 03:19:50;;;;;;;36.15;21.50;;;256.20;2252.80;;;;;;5030865;28;20131;-91
2023/01/04 03:35:21;;;;;;;34.33;21.70;;;256.20;2252.80;;;;;;5052694;28;20060;-86
2023/01/04 03:36:05;;;;;;;;;;;256.10;2252.80;;;;;;5054045;28;20099;-86
2023/01/04 03:48:31;;;;;;;47.65;26.80;;;231.30;2252.80;;;;;;5053003;28;20102;-80
2023/01/04 03:51:02;;;;;;;43.95;26.52;;;231.30;2252.80;;;;;;4956116;28;20118;-78
2023/01/04 03:53:29;;;;;;;48.78;28.70;;;231.30;2252.80;;;;;;4955724;28;20031;-79
2023/01/04 03:55:57;;;;;;;64.97;37.60;;;231.30;2252.80;;;;;;4972097;28;20051;-78
2023/01/04 03:58:24;;;;;;;75.65;47.13;;;256.00;2252.80;;;;;;4972070;28;20030;-86
2023/01/04 04:00:49;;;;;;;84.30;56.00;;;256.10;2252.80;;;;;;4972278;28;20031;-91
2023/01/04 04:03:15;;;;;;;87.55;55.72;;;231.30;2252.80;;;;;;4959945;28;20106;-89
2023/01/04 04:08:30;;;;;;;61.40;41.42;;;256.00;2252.80;;;;;;4976725;28;19963;-90
2023/01/04 04:13:48;;;;;;;44.78;28.17;;;231.30;2252.80;;;;;;4976668;28;20043;-89
2023/01/04 04:16:16;;;;;;;40.30;24.10;;;231.30;2252.80;;;;;;4959615;28;20493;-86
2023/01/04 04:18:42;;;;;;;32.53;20.20;;;231.30;2252.80;;;;;;4959753;28;20077;-78
2023/01/04 04:21:08;;;;;;;35.47;21.63;;;231.30;2252.80;;;;;;4976092;28;20050;-90
2023/01/04 04:23:33;;;;;;;35.15;21.30;;;231.30;2252.80;;;;;;4976013;28;20038;-89
2023/01/04 04:25:59;;;;;;;31.17;20.83;;;256.00;2252.80;;;;;;4970959;28;20029;-78
2023/01/04 04:28:25;;;;;;;33.85;20.65;;;256.00;2252.80;;;;;;5038905;28;20533;-88
2023/01/04 04:30:51;;;;;;;;;;;256.00;2252.80;;;;;;5056907;28;20426;-91
2023/01/04 04:33:17;;;;;;;35.30;21.15;;;256.10;2252.80;;;;;;5056606;28;19943;-84
2023/01/04 04:35:43;;;;;;;37.30;21.00;;;256.10;2252.80;;;;;;5056574;28;20021;-77
2023/01/04 04:38:08;;;;;;;;;;;256.20;2252.80;;;;;;5039147;28;20478;-90
2023/01/04 04:43:21;;;;;;;;;;;256.00;2252.80;;;;;;5057110;28;20098;-78
2023/01/04 04:45:46;;;;;;;32.60;19.67;;;231.30;2252.80;;;;;;5038659;28;20359;-90
2023/01/04 04:48:12;;;;;;;;;;;231.20;2252.80;;;;;;5038890;28;20040;-90
2023/01/04 04:50:37;;;;;;;40.60;23.15;;;231.20;2252.80;;;;;;5038413;28;19924;-90
2023/01/04 04:53:03;;;;;;;;;;;231.20;2252.80;;;;;;5038966;28;20043;-90
2023/01/04 04:55:29;;;;;;;41.72;23.92;;;231.10;2252.80;;;;;;5038218;28;19917;-89
2023/01/04 04:57:54;;;;;;;;;;;231.00;2252.80;;;;;;5038906;28;20083;-90
2023/01/04 05:00:20;;;;;;;43.42;25.20;;;231.10;2252.80;;;;;;5038117;28;19912;-90
2023/01/04 05:02:46;;;;;;;;;;;231.10;2252.80;;;;;;5038511;28;20045;-77
2023/01/04 05:05:11;;;;;;;49.35;25.13;;;231.10;2252.80;;;;;;5038374;28;19951;-90
2023/01/04 05:07:37;;;;;;;;;;;231.00;2252.80;;;;;;5038523;28;20028;-90
2023/01/04 05:10:03;;;;;;;45.33;26.40;;;231.00;2252.80;;;;;;5055727;28;19917;-78
2023/01/04 05:15:13;;;;;;;58.25;29.73;;;231.00;2252.80;;;;;;5055984;28;20059;-78
2023/01/04 05:17:38;;;;;;;54.58;28.65;;;231.00;2252.80;;;;;;5037965;28;20024;-90
2023/01/04 05:20:05;;;;;;;51.17;28.40;;;231.10;2252.80;;;;;;5037637;28;20028;-78
2023/01/04 05:22:30;;;;;;;51.13;28.10;;;231.10;2252.80;;;;;;5057672;28;20067;-90
2023/01/04 05:24:56;;;;;;;49.30;26.10;;;231.00;2252.80;;;;;;5037205;28;20025;-90
2023/01/04 05:27:22;;;;;;;49.40;27.63;;;231.00;2252.80;;;;;;5036746;28;20525;-82
2023/01/04 05:32:32;;;;;;;51.03;25.60;;;231.20;2252.80;;;;;;5052955;28;19927;-91
2023/01/04 05:34:57;;;;;;;51.72;27.45;;;231.10;2252.80;;;;;;5036706;28;20017;-91
2023/01/04 05:37:24;;;;;;;;;;;231.10;2252.80;;;;;;5036864;28;20025;-80
2023/01/04 05:39:50;;;;;;;44.30;24.83;;;231.10;2252.80;;;;;;5036932;28;19905;-78
2023/01/04 05:42:25;;;;;;;;;;;231.10;2252.80;;;;;;5037403;28;20021;-90
2023/01/04 05:44:56;;;;;;;44.75;23.25;;;231.10;2252.80;;;;;;5034252;28;20354;-86
2023/01/04 05:47:23;;;;;;;42.00;24.65;;;231.00;2252.80;;;;;;5036384;28;20040;-89
2023/01/04 05:49:49;;;;;;;38.65;24.13;;;231.00;2252.80;;;;;;5020122;28;20033;-78
2023/01/04 05:52:15;;;;;;;37.28;22.23;;;230.90;2252.80;;;;;;5036408;28;20095;-76
2023/01/04 05:54:41;;;;;;;40.08;24.02;;;230.90;2252.80;;;;;;5028108;28;20017;-88
2023/01/04 05:57:07;;;;;;;41.05;23.33;;;230.90;2252.80;;;;;;5027856;28;20502;-83
2023/01/04 05:59:33;;;;;;;33.97;21.50;;;230.90;2252.80;;;;;;5036215;28;20021;-78
2023/01/04 06:01:59;;;;;;;39.58;21.98;;;230.90;2252.80;;;;;;5025390;28;20021;-77
2023/01/04 06:04:25;;;;;;;;;;;230.90;2252.80;;;;;;5054183;28;20429;-78
2023/01/04 06:06:50;;;;;;;56.30;30.17;;;230.90;2252.80;;;;;;5035804;28;19905;-85
2023/01/04 06:09:16;;;;;;;;;;;230.90;2252.80;;;;;;5036237;28;20029;-86
2023/01/04 06:11:42;;;;;;;35.75;22.90;;;230.90;2252.80;;;;;;5036196;28;19913;-86
2023/01/04 06:14:07;;;;;;;40.22;22.73;;;230.80;2252.80;;;;;;5035882;28;20025;-79
2023/01/04 06:16:33;;;;;;;39.13;23.60;;;230.90;2252.80;;;;;;5035829;28;20364;-78
2023/01/04 06:18:59;;;;;;;;;;;230.90;2252.80;;;;;;5036361;28;20174;-80
2023/01/04 06:21:25;;;;;;;38.05;23.02;;;230.80;2252.80;;;;;;5024570;28;19958;-78
2023/01/04 06:23:52;;;;;;;56.63;33.42;;;231.00;2252.80;;;;;;5035579;28;20045;-80
2023/01/04 06:26:18;;;;;;;48.63;25.67;;;231.00;2252.80;;;;;;5035771;28;20112;-86
2023/01/04 06:28:44;;;;;;;37.38;23.55;;;230.90;2252.80;;;;;;5035675;28;20021;-78
2023/01/04 06:31:10;;;;;;;36.90;21.92;;;230.90;2252.80;;;;;;5035138;28;20044;-78
2023/01/04 06:33:37;;;;;;;39.63;23.73;;;230.90;2252.80;;;;;;5035536;28;20017;-84
2023/01/04 06:36:04;;;;;;;35.05;23.45;;;230.90;2252.80;;;;;;5035488;28;20029;-87
2023/01/04 06:38:30;;;;;;;37.28;23.95;;;230.90;2252.80;;;;;;5053384;28;20013;-79
2023/01/04 06:40:56;;;;;;;40.50;22.85;;;230.80;2252.80;;;;;;5053130;28;20032;-78
2023/01/04 06:43:22;;;;;;;37.05;23.77;;;230.90;2252.80;;;;;;5033819;28;20037;-84
2023/01/04 06:45:48;;;;;;;41.35;23.98;;;230.90;2252.80;;;;;;5035461;28;20045;-79
2023/01/04 06:48:14;;;;;;;37.90;23.95;;;230.80;2252.80;;;;;;5035443;28;20072;-78
2023/01/04 06:50:39;;;;;;;40.25;24.23;;;230.80;2252.80;;;;;;5053310;28;20541;-82
2023/01/04 06:53:05;;;;;;;;;;;230.80;2252.80;;;;;;5036426;28;20521;-82
2023/01/04 06:55:31;;;;;;;43.38;24.65;;;230.80;2252.80;;;;;;5053805;28;19916;-80
2023/01/04 06:57:56;;;;;;;;;;;230.80;2252.80;;;;;;5036676;28;20483;-83
2023/01/04 07:00:23;;;;;;;50.38;27.33;;;230.80;2252.80;;;;;;5035535;28;20283;-82
2023/01/04 07:02:49;;;;;;;47.35;26.77;;;230.70;2252.80;;;;;;5035547;28;20028;-82
2023/01/04 07:05:15;;;;;;;42.70;26.00;;;230.80;2252.80;;;;;;5035708;28;20071;-82
2023/01/04 07:07:40;;;;;;;46.00;27.10;;;230.90;2252.80;;;;;;5035584;28;20029;-81
2023/01/04 07:10:06;;;;;;;;;;;230.90;2252.80;;;;;;5035744;28;20037;-88
2023/01/04 07:12:32;;;;;;;41.25;23.45;;;231.00;2252.80;;;;;;5053616;28;20277;-86
2023/01/04 07:14:58;;;;;;;45.92;26.15;;;231.00;2252.80;;;;;;5053515;28;20028;-85
2023/01/04 07:17:24;;;;;;;42.97;24.80;;;231.10;2252.80;;;;;;5053573;28;20033;-85
2023/01/04 07:19:49;;;;;;;42.15;26.38;;;231.10;2252.80;;;;;;5035543;28;20033;-82
2023/01/04 07:22:15;;;;;;;;;;;231.10;2252.80;;;;;;5035950;28;20390;-87
2023/01/04 07:24:42;;;;;;;39.35;23.70;;;231.10;2252.80;;;;;;5035987;28;19955;-87
2023/01/04 07:27:09;;;;;;;39.70;24.73;;;231.10;2252.80;;;;;;5035677;28;20471;-87
2023/01/04 07:29:35;;;;;;;42.28;24.98;;;231.10;2252.80;;;;;;5053370;28;20041;-88
2023/01/04 07:32:00;;;;;;;38.80;24.20;;;231.20;2252.80;;;;;;5053241;28;20079;-82
2023/01/04 07:34:27;;;;;;;39.80;23.63;;;231.20;2252.80;;;;;;5034637;28;20045;-80
2023/01/04 07:36:53;;;;;;;43.15;25.10;;;231.20;2252.80;;;;;;5035037;28;20043;-82
2023/01/04 07:39:20;;;;;;;41.65;25.00;;;231.30;2252.80;;;;;;5034175;28;20558;-83
2023/01/04 07:41:47;;;;;;;40.33;23.98;;;231.20;2252.80;;;;;;5033831;28;20033;-85
2023/01/04 07:44:13;;;;;;;36.42;23.73;;;231.20;2252.80;;;;;;5034653;28;20132;-77
2023/01/04 07:46:39;;;;;;;40.97;24.52;;;231.20;2252.80;;;;;;5052049;28;20104;-76
2023/01/04 07:49:05;;;;;;;40.40;24.67;;;231.30;2252.80;;;;;;5034251;28;20124;-78
2023/01/04 07:51:32;;;;;;;44.05;24.23;;;231.30;2252.80;;;;;;5034660;28;20037;-77
2023/01/04 07:53:58;;;;;;;36.53;22.88;;;231.20;2252.80;;;;;;5034811;28;20030;-86
2023/01/04 07:56:24;;;;;;;44.80;25.77;;;231.30;2252.80;;;;;;5035244;28;20052;-85
2023/01/04 07:58:50;;;;;;;41.83;23.48;;;256.00;2252.80;;;;;;5024478;28;20033;-85
2023/01/04 08:01:17;;;;;;;41.40;24.35;;;231.30;2252.80;;;;;;5034747;28;20033;-87
2023/01/04 08:03:46;;;;;;;43.45;25.65;;;256.00;2252.80;;;;;;5035496;28;20163;-85
2023/01/04 08:06:14;;;;;;;40.53;25.92;;;256.20;2252.80;;;;;;5034977;28;20079;-80
2023/01/04 08:08:41;;;;;;;42.17;25.20;;;256.20;2252.80;;;;;;5035314;28;20036;-87
2023/01/04 08:11:09;;;;;;;42.70;25.02;;;256.30;2252.80;;;;;;5050166;28;20058;-88
2023/01/04 08:13:35;;;;;;;39.13;23.60;;;256.40;2252.80;;;;;;5052921;28;20013;-88
2023/01/04 08:16:01;;;;;;;32.78;22.75;;;256.30;2252.80;;;;;;5052817;28;20032;-85
2023/01/04 08:18:26;;;;;;;;;;;256.30;2252.80;;;;;;5035182;28;20033;-85
2023/01/04 08:21:07;;;;;;;42.00;23.33;;;256.50;2252.80;;;;;;5033423;28;19912;-84
2023/01/04 08:23:33;;;;;;;39.22;24.30;;;256.40;2252.80;;;;;;5046850;28;20043;-86
2023/01/04 08:26:08;;;;;;;35.38;22.83;;;256.40;2252.80;;;;;;5052312;28;20070;-81
2023/01/04 08:28:34;;;;;;;35.17;22.85;;;256.40;2252.80;;;;;;5052754;28;20025;-87
2023/01/04 08:31:10;;;;;;;36.08;21.70;;;256.60;2252.80;;;;;;5037320;28;20069;-85
2023/01/04 08:33:37;;;;;;;34.75;22.17;;;256.60;2252.80;;;;;;5035367;28;20025;-86
2023/01/04 08:36:30;;;;;;;39.15;23.80;;;256.70;2252.80;;;;;;5052965;28;20115;-81
2023/01/04 08:38:58;;;;;;;35.17;21.27;;;256.60;2252.80;;;;;;5034636;28;20024;-83
2023/01/04 08:41:24;;;;;;;41.28;25.75;;;256.60;2252.80;;;;;;5051109;28;20021;-85
2023/01/04 08:43:50;;;;;;;36.25;23.42;;;256.60;2252.80;;;;;;5052666;28;20043;-82
2023/01/04 08:46:16;;;;;;;;;;;256.60;2252.80;;;;;;5053096;28;20391;-81
2023/01/04 08:48:41;;;;;;;37.67;22.08;;;256.50;2252.80;;;;;;5036754;28;20358;-81
2023/01/04 08:51:10;;;;;;;37.38;22.65;;;256.30;2252.80;;;;;;5038901;28;20037;-83
2023/01/04 08:53:36;;;;;;;35.90;21.85;;;256.30;2252.80;;;;;;5056142;28;20040;-84
2023/01/04 08:56:03;;;;;;;36.38;21.95;;;256.40;2252.80;;;;;;5038175;28;20079;-78
2023/01/04 08:58:31;;;;;;;36.08;21.95;;;256.50;2252.80;;;;;;5056156;28;20072;-83
2023/01/04 09:01:01;;;;;;;39.80;23.42;;;256.50;2252.80;;;;;;5038174;28;20067;-86
2023/01/04 09:03:27;;;;;;;38.67;22.70;;;256.50;2252.80;;;;;;5038431;28;20040;-86
2023/01/04 09:05:53;;;;;;;35.03;22.35;;;256.20;2252.80;;;;;;5050694;28;20040;-81
2023/01/04 09:08:19;;;;;;;36.25;21.40;;;256.50;2252.80;;;;;;5037675;28;20017;-77
2023/01/04 09:10:45;;;;;;;35.55;20.90;;;256.50;2252.80;;;;;;5037982;28;20047;-81
2023/01/04 09:13:11;;;;;;;37.55;22.00;;;256.60;2252.80;;;;;;5038070;28;20048;-79
2023/01/04 09:15:36;;;;;;;;;;;256.60;2252.80;;;;;;5055675;28;20025;-79
2023/01/04 09:18:03;;;;;;;36.75;19.35;;;256.60;2252.80;;;;;;5054883;28;19915;-79
2023/01/04 09:20:29;;;;;;;33.05;20.50;;;256.70;2252.80;;;;;;5037689;28;20087;-81
2023/01/04 09:22:57;;;;;;;32.03;20.05;;;256.70;2252.80;;;;;;5055958;28;20470;-82
2023/01/04 09:25:23;;;;;;;36.88;20.10;;;256.70;2252.80;;;;;;5055080;28;20044;-81
2023/01/04 09:27:49;;;;;;;33.92;20.20;;;256.90;2252.80;;;;;;5054403;28;20029;-84
2023/01/04 09:30:14;;;;;;;;;;;281.60;2278.40;;;;;;5055742;28;20107;-82
2023/01/04 09:32:40;;;;;;;30.73;18.92;;;281.60;2278.40;;;;;;5037266;28;19911;-82
2023/01/04 09:35:07;;;;;;;;;;;281.80;2278.40;;;;;;5038082;28;20386;-79
2023/01/04 09:37:32;;;;;;;32.03;18.38;;;281.80;2278.40;;;;;;5055034;28;19940;-85
2023/01/04 09:39:58;;;;;;;;;;;282.00;2278.40;;;;;;5037702;28;20060;-84
2023/01/04 09:42:32;;;;;;;26.20;16.83;;;282.30;2278.40;;;;;;5037674;28;19909;-82
2023/01/04 09:45:20;;;;;;;31.80;18.27;;;282.50;2278.40;;;;;;5037134;28;20119;-85
2023/01/04 09:48:02;;;;;;;39.03;23.83;;;307.20;2304.00;;;;;;5051552;28;20104;-84
2023/01/04 09:50:35;;;;;;;26.70;15.98;;;307.40;2304.00;;;;;;5054821;28;20040;-85
2023/01/04 09:53:07;;;;;;;52.05;21.75;;;307.60;2304.00;;;;;;5054054;28;20025;-78
2023/01/04 09:55:46;;;;;;;38.08;19.75;;;307.60;2304.00;;;;;;5032903;28;20140;-80
2023/01/04 09:58:25;;;;;;;30.10;16.13;;;307.70;2304.00;;;;;;5052486;28;20024;-81
2023/01/04 10:01:10;;;;;;;29.20;17.35;;;307.90;2304.00;;;;;;5053216;28;20025;-86
2023/01/04 10:03:38;;;;;;;26.63;16.08;;;332.90;2329.60;;;;;;5036679;28;20127;-85
2023/01/04 10:06:08;;;;;;;43.83;23.92;;;333.10;2329.60;;;;;;5035556;28;20033;-85
2023/01/04 10:08:35;;;;;;;26.08;17.13;;;333.10;2329.60;;;;;;5054941;28;20025;-87
2023/01/04 10:11:28;;;;;;;23.90;16.58;;;333.20;2329.60;;;;;;5054214;28;20517;-88
2023/01/04 10:14:11;;;;;;;30.92;17.25;;;333.20;2329.60;;;;;;5043466;28;20482;-88
2023/01/04 10:16:43;;;;;;;23.13;14.18;;;333.50;2329.60;;;;;;5054734;28;20033;-85
2023/01/04 10:19:29;;;;;;;31.67;15.15;;;333.60;2329.60;;;;;;5036394;28;20036;-84
2023/01/04 10:22:17;;;;;;;22.75;13.52;;;358.50;2329.60;;;;;;5021025;28;20061;-82
2023/01/04 10:25:13;;;;;;;24.63;15.00;;;358.70;2329.60;;;;;;4974084;28;20051;-80
2023/01/04 10:28:13;;;;;;;27.55;15.80;;;358.80;2329.60;;;;;;4976418;28;20154;-84
2023/01/04 10:30:53;;;;;;;25.05;14.80;;;359.00;2329.60;;;;;;4973769;28;20047;-82
2023/01/04 10:33:27;;;;;;;27.58;15.55;;;359.00;2329.60;;;;;;4956765;28;20051;-81
2023/01/04 10:35:53;;;;;;;21.80;13.88;;;384.00;2329.60;;;;;;4958064;28;20049;-83
2023/01/04 10:38:35;;;;;;;19.80;14.13;;;384.00;2329.60;;;;;;4961163;28;20023;-84
2023/01/04 10:41:09;;;;;;;24.67;14.80;;;384.00;2329.60;;;;;;4960255;28;20022;-82
2023/01/04 10:43:40;;;;;;;22.20;13.45;;;384.00;2329.60;;;;;;4957122;28;20038;-82
2023/01/04 10:46:21;;;;;;;23.52;15.43;;;384.10;2329.60;;;;;;4973543;28;20047;-88
2023/01/04 10:48:59;;;;;;;23.60;15.60;;;384.40;2329.60;;;;;;4957132;28;20047;-84
2023/01/04 10:51:50;;;;;;;21.98;14.57;;;384.60;2329.60;;;;;;4956954;28;20085;-86
2023/01/04 10:54:39;;;;;;;22.13;14.40;;;384.50;2278.40;;;;;;4972931;28;20073;-88
2023/01/04 10:57:11;;;;;;;24.08;14.45;;;384.70;2329.60;;;;;;4976929;28;20147;-83
2023/01/04 10:59:48;;;;;;;25.75;14.63;;;384.60;2252.80;;;;;;4957252;28;20027;-83
2023/01/04 11:02:37;;;;;;;24.67;14.57;;;384.70;2201.60;;;;;;5015365;28;20037;-82
2023/01/04 11:05:20;;;;;;;22.17;14.07;;;384.70;2176.00;;;;;;5035860;28;20029;-84
2023/01/04 11:08:32;;;;;;;20.48;13.75;;;384.70;2176.00;;;;;;5033163;28;20029;-85
2023/01/04 11:11:16;;;;;;;30.95;16.08;;;384.70;2227.20;;;;;;4955803;28;20043;-87
2023/01/04 11:13:42;;;;;;;59.70;25.23;;;384.50;2201.60;;;;;;4956510;28;20039;-82
2023/01/04 11:16:08;;;;;;;36.65;21.23;;;384.50;2278.40;;;;;;4959296;28;20037;-79
2023/01/04 11:18:36;;;;;;;26.63;15.80;;;384.70;2227.20;;;;;;4983172;28;20137;-76
2023/01/04 11:21:07;;;;;;;21.10;13.63;;;384.70;2176.00;;;;;;4959084;28;20150;-84
2023/01/04 11:23:33;;;;;;;27.58;17.20;;;384.90;2176.00;;;;;;4972773;28;20113;-82
2023/01/04 11:26:21;;;;;;;20.85;14.25;;;384.90;2227.20;;;;;;4974427;28;20026;-82
2023/01/04 11:28:53;;;;;;;24.80;15.65;;;384.80;2150.40;;;;;;4975254;28;20512;-85
2023/01/04 11:31:33;;;;;;;19.27;13.18;;;384.70;2201.60;;;;;;4980158;28;20035;-78
2023/01/04 11:34:01;;;;;;;21.75;12.38;;;384.90;2124.80;;;;;;4978799;28;20042;-89
2023/01/04 11:36:42;;;;;;;17.85;11.10;;;384.60;2150.40;;;;;;4980039;28;20139;-79
2023/01/04 11:39:20;;;;;;;19.23;10.25;;;384.70;2124.80;;;;;;4979315;28;20031;-82
2023/01/04 11:42:03;;;;;;;16.60;11.07;;;384.60;2099.20;;;;;;4973962;28;20095;-81
2023/01/04 11:44:33;;;;;;;15.45;9.45;;;384.50;2124.80;;;;;;4977915;28;20038;-82
2023/01/04 11:47:14;;;;;;;16.02;10.00;;;384.50;2099.20;;;;;;5029462;28;20033;-85
2023/01/04 11:49:40;;;;;;;15.90;9.43;;;384.60;2048.00;;;;;;5052615;28;20036;-83
2023/01/04 11:52:17;;;;;;;17.73;10.52;;;384.60;2099.20;;;;;;5052754;28;20368;-83
2023/01/04 11:54:42;;;;;;;14.57;9.77;;;384.60;1996.80;;;;;;5034686;28;20490;-84
2023/01/04 11:57:18;;;;;;;15.95;10.80;;;384.30;2022.40;;;;;;5052516;28;20060;-82
2023/01/04 11:59:43;;;;;;;16.20;9.93;;;384.30;2099.20;;;;;;5034935;28;20033;-80
2023/01/04 12:02:20;;;;;;;15.65;10.43;;;384.30;2073.60;;;;;;5035067;28;20108;-85
2023/01/04 12:04:46;;;;;;;;;;;384.30;2099.20;;;;;;5053222;28;20036;-84
2023/01/04 12:07:20;;;;;;;20.00;9.53;;;384.30;2099.20;;;;;;5035268;28;19909;-83
2023/01/04 12:09:46;;;;;;;17.15;9.52;;;384.00;2048.00;;;;;;5029356;28;20037;-83
2023/01/04 12:12:12;;;;;;;16.80;9.23;;;359.30;2048.00;;;;;;5034927;28;20037;-82
2023/01/04 12:14:44;;;;;;;12.50;8.10;;;359.10;2073.60;;;;;;5033529;28;20030;-80
2023/01/04 12:17:20;;;;;;;14.50;8.05;;;359.00;2073.60;;;;;;5035271;28;20112;-80
2023/01/04 12:19:47;;;;;;;19.10;8.57;;;358.90;2073.60;;;;;;5033010;28;20026;-85
2023/01/04 12:22:34;;;;;;;19.23;9.88;;;358.90;2073.60;;;;;;5024953;28;20136;-81
2023/01/04 12:25:01;;;;;;;20.50;9.50;;;358.80;2124.80;;;;;;5036755;28;20557;-85
2023/01/04 12:27:27;;;;;;;13.20;8.20;;;358.80;2124.80;;;;;;5056757;28;20078;-80
2023/01/04 12:30:01;;;;;;;13.50;7.97;;;358.70;2099.20;;;;;;5056704;28;20044;-87
2023/01/04 12:32:27;;;;;;;18.65;9.45;;;358.70;2124.80;;;;;;5056203;28;20067;-84
2023/01/04 12:34:53;;;;;;;19.30;9.55;;;358.70;2176.00;;;;;;5056300;28;20025;-85
2023/01/04 12:37:44;;;;;;;15.70;8.80;;;358.70;2201.60;;;;;;5038780;28;20532;-84
2023/01/04 12:40:45;;;;;;;14.05;7.63;;;358.50;2150.40;;;;;;5026842;28;20124;-85
2023/01/04 12:43:13;;;;;;;12.95;8.10;;;358.50;2099.20;;;;;;5054955;28;20021;-86
2023/01/04 12:45:40;;;;;;;11.93;7.93;;;358.50;2124.80;;;;;;5056254;28;20037;-79
2023/01/04 12:51:23;;;;;;;17.85;9.82;;;358.50;2150.40;;;;;;5047887;28;20088;-81
2023/01/04 12:53:57;;;;;;;18.15;10.68;;;358.40;2201.60;;;;;;5045329;28;20060;-81
2023/01/04 12:57:02;;;;;;;19.27;10.68;;;333.70;2201.60;;;;;;5055741;28;20140;-79
2023/01/04 12:59:34;;;;;;;15.35;9.20;;;358.40;2201.60;;;;;;5028567;28;20112;-82
2023/01/04 13:02:24;;;;;;;12.32;8.00;;;333.70;2227.20;;;;;;5055993;28;20083;-81
2023/01/04 13:04:52;;;;;;;14.07;8.30;;;333.70;2227.20;;;;;;4956004;28;20027;-82
2023/01/04 13:07:38;;;;;;;14.32;9.50;;;333.60;2227.20;;;;;;4955861;29;20072;-82
2023/01/04 13:10:27;;;;;;;15.32;10.25;;;333.60;2252.80;;;;;;4955822;29;20059;-82
2023/01/04 13:13:08;;;;;;;20.65;10.52;;;333.60;2278.40;;;;;;4940264;29;20112;-83
2023/01/04 13:16:10;;;;;;;16.20;9.75;;;333.50;2278.40;;;;;;4955749;29;20058;-81